Time;durP1;ratioP1;P1;durP2;ratioP2;P2;SDS_P1;SDS_P2;PMS_P1;PMS_P2;Temp;Humidity;BMP_temperature;BMP_pressure;BME280_temperature;BME280_humidity;BME280_pressure;Samples;Min_cycle;Max_cycle;Signal;HPM_P1;HPM_P2
2021/11/07 00:16:10;;;;;;;52.50;29.20;;;;;;;3.05;75.81;99198.02;459132;1195;108386;-40
2021/11/07 00:46:36;;;;;;;80.20;39.80;;;;;;;2.92;75.97;99138.92;459003;1195;99041;-44
2021/11/07 01:06:50;;;;;;;56.70;31.30;;;;;;;2.68;76.23;99118.89;459060;1196;108430;-41
2021/11/07 01:16:58;;;;;;;62.70;30.00;;;;;;;2.72;76.55;99101.96;459405;1196;99197;-42
2021/11/07 01:37:20;;;;;;;51.80;28.60;;;;;;;2.79;76.20;99056.40;459233;1196;108179;-40
2021/11/07 01:47:29;;;;;;;67.00;35.50;;;;;;;2.63;76.43;99038.39;459325;1196;99044;-40
2021/11/07 02:07:44;;;;;;;61.00;31.40;;;;;;;2.52;76.54;99039.39;459576;1196;107530;-40
2021/11/07 02:17:51;;;;;;;41.10;23.60;;;;;;;2.49;76.78;99030.57;460540;1173;98583;-41
2021/11/07 02:27:59;;;;;;;34.30;21.10;;;;;;;2.55;76.84;99033.02;460224;1195;112117;-39
2021/11/07 02:38:06;;;;;;;35.70;20.90;;;;;;;2.60;76.89;99021.63;459413;1195;109521;-41
2021/11/07 02:48:14;;;;;;;33.40;19.50;;;;;;;2.69;77.13;98995.35;460275;1193;99044;-40
2021/11/07 02:58:21;;;;;;;33.70;18.60;;;;;;;2.73;77.17;98979.59;460379;1195;108377;-40
2021/11/07 03:08:29;;;;;;;42.00;22.00;;;;;;;2.73;77.18;98973.39;459934;1193;97770;-40
2021/11/07 03:18:38;;;;;;;40.70;22.00;;;;;;;2.68;77.09;98964.39;460356;1194;111654;-40
2021/11/07 03:28:47;;;;;;;31.00;19.70;;;;;;;2.54;77.12;98948.67;459618;1194;108376;-40
2021/11/07 03:38:56;;;;;;;31.20;19.10;;;;;;;2.44;77.12;98937.80;460124;1193;99035;-40
2021/11/07 03:49:04;;;;;;;30.60;18.80;;;;;;;2.41;77.35;98929.11;460144;1193;112168;-43
2021/11/07 03:59:12;;;;;;;33.20;17.90;;;;;;;2.23;77.25;98904.26;460195;1193;108541;-40
2021/11/07 04:09:20;;;;;;;27.00;16.00;;;;;;;2.10;77.34;98873.17;460100;1195;98136;-41
2021/11/07 04:19:28;;;;;;;34.10;18.40;;;;;;;1.98;77.67;98856.69;459863;1187;108514;-40
2021/11/07 04:29:35;;;;;;;37.40;18.40;;;;;;;1.98;77.78;98844.47;460143;1194;99059;-40
2021/11/07 04:39:42;;;;;;;27.90;14.00;;;;;;;2.00;77.70;98833.14;460097;1193;98611;-40
2021/11/07 05:10:04;;;;;;;22.10;13.10;;;;;;;2.31;77.97;98771.86;459872;1193;111752;-39
2021/11/07 05:20:14;;;;;;;29.40;15.90;;;;;;;2.54;78.16;98777.15;459957;1193;107516;-41
2021/11/07 05:30:20;;;;;;;;;;;;;;;2.52;77.89;98767.41;459976;1193;99153;-42
2021/11/07 05:40:28;;;;;;;29.60;16.50;;;;;;;2.54;78.04;98754.58;459998;1194;111716;-40
2021/11/07 05:50:36;;;;;;;18.80;10.80;;;;;;;2.65;77.96;98744.30;459810;1193;108582;-42
2021/11/07 06:00:45;;;;;;;23.10;11.80;;;;;;;2.87;78.04;98721.63;459996;1194;99038;-40
2021/11/07 06:10:51;;;;;;;;;;;;;;;3.05;77.97;98718.08;459563;1194;112122;-43
2021/11/07 06:20:56;;;;;;;15.00;10.00;;;;;;;3.24;78.00;98699.88;459999;1193;108429;-40
2021/11/07 06:41:13;;;;;;;19.60;10.90;;;;;;;4.17;77.94;98687.35;459712;1194;108517;-39
2021/11/07 06:51:21;;;;;;;11.40;7.80;;;;;;;4.88;77.90;98684.70;459837;1194;99063;-39
2021/11/07 07:01:29;;;;;;;11.90;8.50;;;;;;;6.16;77.25;98677.52;459887;1194;112107;-40
2021/11/07 07:11:42;;;;;;;15.50;8.60;;;;;;;6.45;76.17;98662.52;460032;1193;108731;-40
2021/11/07 07:42:32;;;;;;;13.10;8.70;;;;;;;7.56;75.51;98610.91;459395;1195;99035;-40
2021/11/07 07:52:40;;;;;;;16.60;9.60;;;;;;;8.26;73.79;98587.08;459416;1194;112156;-40
2021/11/07 08:02:48;;;;;;;21.10;11.30;;;;;;;8.58;73.38;98570.11;459519;1194;108458;-41
2021/11/07 08:12:55;;;;;;;13.30;8.70;;;;;;;9.71;72.50;98572.70;459604;1194;99719;-40
2021/11/07 08:23:02;;;;;;;12.80;7.90;;;;;;;9.80;70.21;98558.33;459492;1193;111902;-41
2021/11/07 08:33:10;;;;;;;12.10;7.70;;;;;;;9.35;69.46;98553.36;460013;1195;108720;-41
2021/11/07 09:24:38;;;;;;;;;;;;;;;8.12;69.12;98490.39;460237;1194;112273;-41
2021/11/07 09:44:52;;;;;;;17.40;11.10;;;;;;;8.63;69.03;98432.52;459948;1195;99064;-41
2021/11/07 09:55:09;;;;;;;15.90;9.90;;;;;;;9.05;68.73;98404.73;460073;1194;112015;-42
2021/11/07 10:05:19;;;;;;;17.50;11.80;;;;;;;9.33;67.76;98380.63;459847;1195;108569;-41
2021/11/07 10:15:27;;;;;;;12.30;8.80;;;;;;;9.38;67.24;98372.34;459877;1194;99019;-42
2021/11/07 10:25:37;;;;;;;15.70;10.20;;;;;;;9.56;67.09;98367.77;459867;1195;108549;-41
2021/11/07 10:35:58;;;;;;;;;;;;;;;10.04;66.68;98342.15;459827;1195;99037;-41
2021/11/07 10:56:36;;;;;;;11.90;7.80;;;;;;;10.40;65.36;98322.27;459288;1194;108468;-43
2021/11/07 11:06:53;;;;;;;19.40;10.90;;;;;;;10.55;64.01;98320.05;460063;1193;98727;-41
2021/11/07 11:17:10;;;;;;;11.10;7.10;;;;;;;10.51;63.38;98302.60;459049;1194;112160;-41
2021/11/07 11:37:39;;;;;;;11.00;6.90;;;;;;;10.31;62.37;98272.77;459660;1193;99071;-42
2021/11/07 12:19:02;;;;;;;8.60;6.20;;;;;;;9.41;61.14;98262.02;459925;1194;108602;-42
2021/11/07 12:29:10;;;;;;;14.50;7.70;;;;;;;9.20;61.49;98250.58;459455;1194;99157;-40
2021/11/07 12:49:56;;;;;;;10.10;8.10;;;;;;;9.06;62.03;98226.21;459407;1193;108615;-42
2021/11/07 13:00:06;;;;;;;14.60;9.00;;;;;;;9.02;62.12;98215.77;459489;1198;99750;-41
2021/11/07 13:30:57;;;;;;;26.40;14.40;;;;;;;8.82;62.29;98206.33;459699;1200;108561;-40
2021/11/07 13:41:13;;;;;;;14.90;8.80;;;;;;;8.71;62.26;98201.55;459654;1194;98081;-43
2021/11/07 13:51:21;;;;;;;15.30;8.80;;;;;;;8.61;62.61;98178.36;460034;1197;110195;-41
2021/11/07 14:01:31;;;;;;;17.80;11.50;;;;;;;8.54;62.57;98181.48;459856;1195;108409;-42
2021/11/07 14:11:39;;;;;;;15.90;10.30;;;;;;;8.51;62.73;98168.06;460133;1196;97736;-40
2021/11/07 14:21:50;;;;;;;16.30;8.70;;;;;;;8.53;62.80;98171.58;460006;1194;112142;-41
2021/11/07 14:32:04;;;;;;;16.30;9.50;;;;;;;8.49;62.99;98163.66;459295;1195;108617;-42
2021/11/07 14:42:31;;;;;;;16.70;9.60;;;;;;;8.44;63.15;98161.85;459831;1194;99063;-41
2021/11/07 15:03:10;;;;;;;19.90;11.20;;;;;;;8.32;63.43;98142.28;460022;1197;108088;-42
2021/11/07 15:23:29;;;;;;;33.30;16.50;;;;;;;8.41;63.78;98145.88;460006;1194;111778;-42
2021/11/07 15:33:44;;;;;;;19.50;12.70;;;;;;;8.38;63.89;98148.55;459742;1196;110378;-40
2021/11/07 15:43:52;;;;;;;22.30;12.40;;;;;;;8.32;64.00;98151.08;459886;1196;99066;-41
2021/11/07 16:24:34;;;;;;;;;;;;;;;8.08;64.41;98173.39;459991;1197;108542;-41
2021/11/07 16:34:46;;;;;;;34.40;17.00;;;;;;;8.03;64.35;98171.55;459634;1197;98589;-43
2021/11/07 16:44:53;;;;;;;35.20;17.40;;;;;;;7.98;64.46;98167.80;459968;1194;99025;-41
2021/11/07 16:55:08;;;;;;;19.40;11.30;;;;;;;8.00;64.49;98174.73;460049;1193;112018;-41
2021/11/07 17:05:20;;;;;;;18.80;9.60;;;;;;;8.03;64.92;98186.98;460221;1193;108783;-43
2021/11/07 17:15:33;;;;;;;27.80;15.30;;;;;;;7.85;65.59;98184.80;459593;1193;99692;-41
2021/11/07 17:35:49;;;;;;;32.10;17.00;;;;;;;7.57;66.43;98187.54;459490;1195;108270;-41
2021/11/07 17:56:26;;;;;;;17.90;10.50;;;;;;;7.45;67.31;98200.30;459559;1196;108527;-41
2021/11/07 18:06:39;;;;;;;25.80;14.20;;;;;;;7.43;67.62;98208.14;459451;1197;99137;-42
2021/11/07 18:16:47;;;;;;;21.90;11.50;;;;;;;7.33;68.30;98208.29;459812;1196;112151;-41
2021/11/07 18:26:55;;;;;;;15.80;8.30;;;;;;;7.23;68.83;98217.25;460204;1195;107579;-41
2021/11/07 18:37:02;;;;;;;18.40;10.30;;;;;;;7.27;69.30;98223.97;460208;1194;98637;-41
2021/11/07 18:47:09;;;;;;;17.90;7.80;;;;;;;7.30;69.60;98224.25;460101;1195;112172;-42
2021/11/07 18:57:23;;;;;;;22.60;10.80;;;;;;;7.26;69.93;98222.80;459620;1195;107898;-41
2021/11/07 19:07:31;;;;;;;26.40;13.60;;;;;;;7.23;70.03;98230.23;459402;1195;99069;-41
2021/11/07 19:27:47;;;;;;;16.20;11.10;;;;;;;7.18;70.28;98245.86;460384;1194;107614;-41
2021/11/07 19:37:55;;;;;;;22.30;14.40;;;;;;;7.26;70.30;98249.79;460233;1193;99035;-41
2021/11/07 19:58:10;;;;;;;28.30;15.60;;;;;;;7.20;70.55;98262.83;460549;1193;108521;-41
2021/11/07 20:08:29;;;;;;;23.00;13.70;;;;;;;7.00;71.05;98271.50;460489;1193;99037;-41
2021/11/07 20:18:37;;;;;;;23.70;13.80;;;;;;;6.96;71.10;98285.90;460354;1193;108675;-41
2021/11/07 20:28:44;;;;;;;23.80;13.70;;;;;;;6.94;71.35;98282.40;460447;1194;97982;-40
2021/11/07 20:38:53;;;;;;;25.60;14.00;;;;;;;6.96;71.74;98295.77;460383;1193;112062;-42
2021/11/07 21:29:56;;;;;;;30.20;15.40;;;;;;;6.84;72.42;98299.92;460653;1193;99156;-42
2021/11/07 21:50:18;;;;;;;26.00;13.80;;;;;;;6.79;72.69;98297.87;460395;1193;99043;-41
2021/11/07 22:00:26;;;;;;;18.40;10.30;;;;;;;6.73;72.63;98285.14;460300;1187;111456;-39
2021/11/07 22:10:33;;;;;;;28.20;15.90;;;;;;;6.77;72.71;98303.83;460170;1194;108477;-43
2021/11/07 22:20:48;;;;;;;19.90;12.40;;;;;;;6.83;72.68;98311.83;460254;1196;99031;-40
2021/11/07 23:01:21;;;;;;;39.90;20.10;;;;;;;6.19;73.00;98342.23;460011;1193;108227;-41
2021/11/07 23:11:33;;;;;;;47.80;24.30;;;;;;;6.34;73.29;98355.64;460315;1193;99040;-41
2021/11/07 23:21:41;;;;;;;39.80;21.70;;;;;;;6.37;73.28;98352.84;459453;1194;108571;-41
2021/11/07 23:31:50;;;;;;;18.40;10.30;;;;;;;6.32;73.42;98349.98;459708;1196;99737;-41
2021/11/07 23:41:58;;;;;;;16.30;9.90;;;;;;;6.19;73.36;98346.14;459572;1200;111023;-42
